sensor_id;sensor_type;location;lat;lon;timestamp;P1;durP1;ratioP1;P2;durP2;ratioP2
46348;SDS011;32057;47.830;19.046;2022-12-15T00:02:42;9.88;;;6.18;;
46348;SDS011;32057;47.830;19.046;2022-12-15T00:05:26;8.77;;;6.15;;
46348;SDS011;32057;47.830;19.046;2022-12-15T00:08:10;4.47;;;3.67;;
46348;SDS011;32057;47.830;19.046;2022-12-15T00:10:54;11.23;;;6.72;;
46348;SDS011;32057;47.830;19.046;2022-12-15T00:13:39;20.75;;;8.02;;
46348;SDS011;32057;47.830;19.046;2022-12-15T00:16:23;9.98;;;6.72;;
46348;SDS011;32057;47.830;19.046;2022-12-15T00:19:06;13.40;;;8.25;;
46348;SDS011;32057;47.830;19.046;2022-12-15T00:21:51;9.93;;;5.93;;
46348;SDS011;32057;47.830;19.046;2022-12-15T00:24:35;7.57;;;5.55;;
46348;SDS011;32057;47.830;19.046;2022-12-15T00:27:19;7.38;;;5.05;;
46348;SDS011;32057;47.830;19.046;2022-12-15T00:30:06;9.73;;;5.40;;
46348;SDS011;32057;47.830;19.046;2022-12-15T00:32:50;6.78;;;5.55;;
46348;SDS011;32057;47.830;19.046;2022-12-15T00:35:35;9.15;;;6.15;;
46348;SDS011;32057;47.830;19.046;2022-12-15T00:38:19;10.63;;;6.25;;
46348;SDS011;32057;47.830;19.046;2022-12-15T00:41:03;11.20;;;6.95;;
46348;SDS011;32057;47.830;19.046;2022-12-15T00:43:29;8.68;;;5.38;;
46348;SDS011;32057;47.830;19.046;2022-12-15T00:45:56;13.18;;;5.97;;
46348;SDS011;32057;47.830;19.046;2022-12-15T00:48:41;9.23;;;5.22;;
46348;SDS011;32057;47.830;19.046;2022-12-15T00:51:06;11.48;;;6.82;;
46348;SDS011;32057;47.830;19.046;2022-12-15T00:53:31;12.10;;;6.88;;
46348;SDS011;32057;47.830;19.046;2022-12-15T00:56:15;14.32;;;7.40;;
46348;SDS011;32057;47.830;19.046;2022-12-15T00:59:00;12.18;;;5.18;;
46348;SDS011;32057;47.830;19.046;2022-12-15T01:01:44;9.70;;;5.88;;
46348;SDS011;32057;47.830;19.046;2022-12-15T01:04:28;9.20;;;5.25;;
46348;SDS011;32057;47.830;19.046;2022-12-15T01:07:12;7.18;;;4.90;;
46348;SDS011;32057;47.830;19.046;2022-12-15T01:09:56;6.68;;;4.07;;
46348;SDS011;32057;47.830;19.046;2022-12-15T01:12:40;11.43;;;6.03;;
46348;SDS011;32057;47.830;19.046;2022-12-15T01:15:24;8.82;;;5.95;;
46348;SDS011;32057;47.830;19.046;2022-12-15T01:18:08;10.52;;;7.20;;
46348;SDS011;32057;47.830;19.046;2022-12-15T01:20:56;7.82;;;5.55;;
46348;SDS011;32057;47.830;19.046;2022-12-15T01:23:23;10.68;;;6.45;;
46348;SDS011;32057;47.830;19.046;2022-12-15T01:25:50;17.08;;;8.35;;
46348;SDS011;32057;47.830;19.046;2022-12-15T01:28:16;10.30;;;7.45;;
46348;SDS011;32057;47.830;19.046;2022-12-15T01:30:43;14.35;;;6.90;;
46348;SDS011;32057;47.830;19.046;2022-12-15T01:33:09;12.13;;;4.90;;
46348;SDS011;32057;47.830;19.046;2022-12-15T01:35:34;11.88;;;6.60;;
46348;SDS011;32057;47.830;19.046;2022-12-15T01:38:00;13.20;;;6.53;;
46348;SDS011;32057;47.830;19.046;2022-12-15T01:40:25;9.13;;;5.40;;
46348;SDS011;32057;47.830;19.046;2022-12-15T01:45:40;12.48;;;5.97;;
46348;SDS011;32057;47.830;19.046;2022-12-15T01:48:58;6.78;;;4.80;;
46348;SDS011;32057;47.830;19.046;2022-12-15T01:53:50;10.25;;;6.20;;
46348;SDS011;32057;47.830;19.046;2022-12-15T01:56:22;11.38;;;7.20;;
46348;SDS011;32057;47.830;19.046;2022-12-15T01:58:52;11.13;;;6.28;;
46348;SDS011;32057;47.830;19.046;2022-12-15T02:01:21;7.18;;;5.97;;
46348;SDS011;32057;47.830;19.046;2022-12-15T02:03:47;15.20;;;7.50;;
46348;SDS011;32057;47.830;19.046;2022-12-15T02:06:13;10.13;;;5.13;;
46348;SDS011;32057;47.830;19.046;2022-12-15T02:08:40;13.90;;;7.10;;
46348;SDS011;32057;47.830;19.046;2022-12-15T02:11:22;9.88;;;8.05;;
46348;SDS011;32057;47.830;19.046;2022-12-15T02:22:06;9.57;;;5.97;;
46348;SDS011;32057;47.830;19.046;2022-12-15T02:27:37;9.48;;;6.25;;
46348;SDS011;32057;47.830;19.046;2022-12-15T02:35:46;10.43;;;7.45;;
46348;SDS011;32057;47.830;19.046;2022-12-15T02:38:14;7.38;;;5.32;;
46348;SDS011;32057;47.830;19.046;2022-12-15T02:40:39;14.93;;;7.28;;
46348;SDS011;32057;47.830;19.046;2022-12-15T02:43:05;9.88;;;6.72;;
46348;SDS011;32057;47.830;19.046;2022-12-15T02:45:39;8.85;;;7.50;;
46348;SDS011;32057;47.830;19.046;2022-12-15T02:59:03;15.02;;;6.22;;
46348;SDS011;32057;47.830;19.046;2022-12-15T03:01:37;16.35;;;6.35;;
46348;SDS011;32057;47.830;19.046;2022-12-15T03:04:08;13.40;;;6.70;;
46348;SDS011;32057;47.830;19.046;2022-12-15T03:06:36;7.43;;;5.60;;
46348;SDS011;32057;47.830;19.046;2022-12-15T03:09:01;11.43;;;5.90;;
46348;SDS011;32057;47.830;19.046;2022-12-15T03:11:27;9.45;;;6.80;;
46348;SDS011;32057;47.830;19.046;2022-12-15T03:13:53;15.07;;;7.10;;
46348;SDS011;32057;47.830;19.046;2022-12-15T03:16:19;10.55;;;7.03;;
46348;SDS011;32057;47.830;19.046;2022-12-15T03:18:45;7.63;;;4.70;;
46348;SDS011;32057;47.830;19.046;2022-12-15T03:21:11;18.55;;;6.22;;
46348;SDS011;32057;47.830;19.046;2022-12-15T03:23:36;12.93;;;6.85;;
46348;SDS011;32057;47.830;19.046;2022-12-15T03:26:02;11.65;;;6.32;;
46348;SDS011;32057;47.830;19.046;2022-12-15T03:28:28;11.98;;;7.50;;
46348;SDS011;32057;47.830;19.046;2022-12-15T03:30:53;15.65;;;7.13;;
46348;SDS011;32057;47.830;19.046;2022-12-15T03:33:20;9.07;;;7.28;;
46348;SDS011;32057;47.830;19.046;2022-12-15T03:35:46;14.75;;;7.20;;
46348;SDS011;32057;47.830;19.046;2022-12-15T03:38:11;18.05;;;6.32;;
46348;SDS011;32057;47.830;19.046;2022-12-15T03:40:37;8.80;;;6.45;;
46348;SDS011;32057;47.830;19.046;2022-12-15T03:43:02;10.55;;;7.43;;
46348;SDS011;32057;47.830;19.046;2022-12-15T03:45:28;14.35;;;8.18;;
46348;SDS011;32057;47.830;19.046;2022-12-15T03:47:54;17.48;;;8.40;;
46348;SDS011;32057;47.830;19.046;2022-12-15T03:50:21;12.60;;;8.10;;
46348;SDS011;32057;47.830;19.046;2022-12-15T03:52:49;13.68;;;6.85;;
46348;SDS011;32057;47.830;19.046;2022-12-15T03:55:21;15.18;;;6.63;;
46348;SDS011;32057;47.830;19.046;2022-12-15T03:57:47;14.07;;;8.52;;
46348;SDS011;32057;47.830;19.046;2022-12-15T04:00:14;13.75;;;7.97;;
46348;SDS011;32057;47.830;19.046;2022-12-15T04:02:40;16.58;;;7.25;;
46348;SDS011;32057;47.830;19.046;2022-12-15T04:05:07;15.65;;;7.30;;
46348;SDS011;32057;47.830;19.046;2022-12-15T04:07:33;19.65;;;8.82;;
46348;SDS011;32057;47.830;19.046;2022-12-15T04:09:58;9.93;;;8.18;;
46348;SDS011;32057;47.830;19.046;2022-12-15T04:12:24;22.05;;;7.95;;
46348;SDS011;32057;47.830;19.046;2022-12-15T04:14:49;24.17;;;8.35;;
46348;SDS011;32057;47.830;19.046;2022-12-15T04:17:14;15.15;;;9.02;;
46348;SDS011;32057;47.830;19.046;2022-12-15T04:19:40;14.82;;;8.52;;
46348;SDS011;32057;47.830;19.046;2022-12-15T04:22:24;19.27;;;8.98;;
46348;SDS011;32057;47.830;19.046;2022-12-15T04:24:49;12.75;;;7.68;;
46348;SDS011;32057;47.830;19.046;2022-12-15T04:27:33;13.73;;;5.80;;
46348;SDS011;32057;47.830;19.046;2022-12-15T04:30:17;10.70;;;8.55;;
46348;SDS011;32057;47.830;19.046;2022-12-15T04:33:01;28.30;;;5.82;;
46348;SDS011;32057;47.830;19.046;2022-12-15T04:35:46;14.15;;;9.13;;
46348;SDS011;32057;47.830;19.046;2022-12-15T04:38:30;13.15;;;9.48;;
46348;SDS011;32057;47.830;19.046;2022-12-15T04:41:14;24.42;;;11.05;;
46348;SDS011;32057;47.830;19.046;2022-12-15T04:43:59;15.43;;;8.40;;
46348;SDS011;32057;47.830;19.046;2022-12-15T04:46:43;15.27;;;9.40;;
46348;SDS011;32057;47.830;19.046;2022-12-15T04:49:27;12.48;;;8.35;;
46348;SDS011;32057;47.830;19.046;2022-12-15T04:52:11;15.60;;;7.35;;
46348;SDS011;32057;47.830;19.046;2022-12-15T04:54:55;13.32;;;8.52;;
46348;SDS011;32057;47.830;19.046;2022-12-15T04:57:39;13.02;;;6.45;;
46348;SDS011;32057;47.830;19.046;2022-12-15T05:00:23;15.95;;;9.00;;
46348;SDS011;32057;47.830;19.046;2022-12-15T05:03:07;13.18;;;7.63;;
46348;SDS011;32057;47.830;19.046;2022-12-15T05:05:51;13.68;;;6.55;;
46348;SDS011;32057;47.830;19.046;2022-12-15T05:08:36;17.08;;;8.00;;
46348;SDS011;32057;47.830;19.046;2022-12-15T05:11:20;25.38;;;9.68;;
46348;SDS011;32057;47.830;19.046;2022-12-15T05:14:04;14.13;;;8.50;;
46348;SDS011;32057;47.830;19.046;2022-12-15T05:16:48;9.60;;;7.68;;
46348;SDS011;32057;47.830;19.046;2022-12-15T05:19:32;15.18;;;9.63;;
46348;SDS011;32057;47.830;19.046;2022-12-15T05:22:15;22.83;;;7.63;;
46348;SDS011;32057;47.830;19.046;2022-12-15T05:25:00;21.88;;;8.98;;
46348;SDS011;32057;47.830;19.046;2022-12-15T05:27:43;18.98;;;9.48;;
46348;SDS011;32057;47.830;19.046;2022-12-15T05:30:27;16.55;;;9.63;;
46348;SDS011;32057;47.830;19.046;2022-12-15T05:33:11;12.23;;;8.23;;
46348;SDS011;32057;47.830;19.046;2022-12-15T05:35:37;15.32;;;11.10;;
46348;SDS011;32057;47.830;19.046;2022-12-15T05:38:03;16.92;;;9.40;;
46348;SDS011;32057;47.830;19.046;2022-12-15T05:40:29;14.02;;;9.65;;
46348;SDS011;32057;47.830;19.046;2022-12-15T05:42:56;17.50;;;8.80;;
46348;SDS011;32057;47.830;19.046;2022-12-15T05:45:23;12.50;;;7.43;;
46348;SDS011;32057;47.830;19.046;2022-12-15T05:47:52;19.40;;;10.98;;
46348;SDS011;32057;47.830;19.046;2022-12-15T05:50:18;17.45;;;9.50;;
46348;SDS011;32057;47.830;19.046;2022-12-15T05:52:44;16.20;;;9.48;;
46348;SDS011;32057;47.830;19.046;2022-12-15T05:55:09;17.27;;;9.23;;
46348;SDS011;32057;47.830;19.046;2022-12-15T05:57:34;13.50;;;8.95;;
46348;SDS011;32057;47.830;19.046;2022-12-15T06:00:00;17.20;;;8.77;;
46348;SDS011;32057;47.830;19.046;2022-12-15T06:02:29;13.52;;;6.55;;
46348;SDS011;32057;47.830;19.046;2022-12-15T06:04:54;16.67;;;8.15;;
46348;SDS011;32057;47.830;19.046;2022-12-15T06:07:19;16.38;;;8.05;;
46348;SDS011;32057;47.830;19.046;2022-12-15T06:09:45;10.95;;;7.13;;
46348;SDS011;32057;47.830;19.046;2022-12-15T06:12:10;35.17;;;9.05;;
46348;SDS011;32057;47.830;19.046;2022-12-15T06:14:36;23.33;;;11.60;;
46348;SDS011;32057;47.830;19.046;2022-12-15T06:17:01;11.48;;;8.07;;
46348;SDS011;32057;47.830;19.046;2022-12-15T06:19:27;19.25;;;7.65;;
46348;SDS011;32057;47.830;19.046;2022-12-15T06:21:52;23.02;;;10.20;;
46348;SDS011;32057;47.830;19.046;2022-12-15T06:24:18;19.80;;;9.93;;
46348;SDS011;32057;47.830;19.046;2022-12-15T06:26:43;15.30;;;9.63;;
46348;SDS011;32057;47.830;19.046;2022-12-15T06:29:10;27.85;;;8.32;;
46348;SDS011;32057;47.830;19.046;2022-12-15T06:31:37;14.65;;;8.05;;
46348;SDS011;32057;47.830;19.046;2022-12-15T06:34:03;19.95;;;8.70;;
46348;SDS011;32057;47.830;19.046;2022-12-15T06:36:30;24.02;;;7.15;;
46348;SDS011;32057;47.830;19.046;2022-12-15T06:38:59;24.90;;;9.93;;
46348;SDS011;32057;47.830;19.046;2022-12-15T06:41:29;24.38;;;14.13;;
46348;SDS011;32057;47.830;19.046;2022-12-15T06:43:55;11.20;;;9.20;;
46348;SDS011;32057;47.830;19.046;2022-12-15T06:46:21;16.30;;;8.27;;
46348;SDS011;32057;47.830;19.046;2022-12-15T06:48:47;15.45;;;7.72;;
46348;SDS011;32057;47.830;19.046;2022-12-15T06:51:13;15.55;;;7.97;;
46348;SDS011;32057;47.830;19.046;2022-12-15T06:53:40;29.45;;;16.00;;
46348;SDS011;32057;47.830;19.046;2022-12-15T06:56:15;21.00;;;13.07;;
46348;SDS011;32057;47.830;19.046;2022-12-15T06:59:02;18.42;;;10.00;;
46348;SDS011;32057;47.830;19.046;2022-12-15T07:01:28;40.47;;;16.17;;
46348;SDS011;32057;47.830;19.046;2022-12-15T07:03:54;23.00;;;15.15;;
46348;SDS011;32057;47.830;19.046;2022-12-15T07:06:20;23.20;;;10.27;;
46348;SDS011;32057;47.830;19.046;2022-12-15T07:08:50;18.83;;;11.07;;
46348;SDS011;32057;47.830;19.046;2022-12-15T07:11:18;17.05;;;9.27;;
46348;SDS011;32057;47.830;19.046;2022-12-15T07:13:47;17.92;;;6.57;;
46348;SDS011;32057;47.830;19.046;2022-12-15T07:16:16;16.55;;;9.02;;
46348;SDS011;32057;47.830;19.046;2022-12-15T07:18:43;50.88;;;23.83;;
46348;SDS011;32057;47.830;19.046;2022-12-15T07:21:09;15.93;;;10.90;;
46348;SDS011;32057;47.830;19.046;2022-12-15T07:23:34;24.15;;;11.65;;
46348;SDS011;32057;47.830;19.046;2022-12-15T07:26:04;21.75;;;11.30;;
46348;SDS011;32057;47.830;19.046;2022-12-15T07:28:32;25.42;;;9.43;;
46348;SDS011;32057;47.830;19.046;2022-12-15T07:31:04;17.60;;;9.45;;
46348;SDS011;32057;47.830;19.046;2022-12-15T07:33:32;27.88;;;9.77;;
46348;SDS011;32057;47.830;19.046;2022-12-15T07:35:58;17.90;;;9.23;;
46348;SDS011;32057;47.830;19.046;2022-12-15T07:38:25;13.95;;;9.30;;
46348;SDS011;32057;47.830;19.046;2022-12-15T07:40:50;30.25;;;10.15;;
46348;SDS011;32057;47.830;19.046;2022-12-15T07:43:16;27.33;;;11.70;;
46348;SDS011;32057;47.830;19.046;2022-12-15T07:45:42;20.90;;;11.10;;
46348;SDS011;32057;47.830;19.046;2022-12-15T07:48:07;21.15;;;9.13;;
46348;SDS011;32057;47.830;19.046;2022-12-15T07:50:32;18.25;;;9.80;;
46348;SDS011;32057;47.830;19.046;2022-12-15T07:52:58;19.83;;;9.15;;
46348;SDS011;32057;47.830;19.046;2022-12-15T07:55:23;19.02;;;9.82;;
46348;SDS011;32057;47.830;19.046;2022-12-15T07:57:49;19.52;;;9.55;;
46348;SDS011;32057;47.830;19.046;2022-12-15T08:00:15;19.98;;;9.70;;
46348;SDS011;32057;47.830;19.046;2022-12-15T08:02:41;22.65;;;11.18;;
46348;SDS011;32057;47.830;19.046;2022-12-15T08:05:07;14.52;;;8.90;;
46348;SDS011;32057;47.830;19.046;2022-12-15T08:07:34;19.23;;;9.20;;
46348;SDS011;32057;47.830;19.046;2022-12-15T08:09:59;16.15;;;9.90;;
46348;SDS011;32057;47.830;19.046;2022-12-15T08:12:28;17.92;;;9.52;;
46348;SDS011;32057;47.830;19.046;2022-12-15T08:14:53;13.73;;;7.20;;
46348;SDS011;32057;47.830;19.046;2022-12-15T08:17:19;32.53;;;10.73;;
46348;SDS011;32057;47.830;19.046;2022-12-15T08:19:44;21.30;;;9.23;;
46348;SDS011;32057;47.830;19.046;2022-12-15T08:22:09;26.15;;;9.57;;
46348;SDS011;32057;47.830;19.046;2022-12-15T08:24:35;24.70;;;11.18;;
46348;SDS011;32057;47.830;19.046;2022-12-15T08:27:01;14.73;;;9.35;;
46348;SDS011;32057;47.830;19.046;2022-12-15T08:29:26;15.23;;;8.27;;
46348;SDS011;32057;47.830;19.046;2022-12-15T08:31:52;25.13;;;10.15;;
46348;SDS011;32057;47.830;19.046;2022-12-15T08:34:17;22.48;;;9.02;;
46348;SDS011;32057;47.830;19.046;2022-12-15T08:36:43;21.58;;;10.57;;
46348;SDS011;32057;47.830;19.046;2022-12-15T08:39:08;12.65;;;8.60;;
46348;SDS011;32057;47.830;19.046;2022-12-15T08:41:33;19.33;;;9.48;;
46348;SDS011;32057;47.830;19.046;2022-12-15T08:43:59;17.00;;;9.55;;
46348;SDS011;32057;47.830;19.046;2022-12-15T08:46:26;19.77;;;10.23;;
46348;SDS011;32057;47.830;19.046;2022-12-15T08:48:53;17.83;;;7.68;;
46348;SDS011;32057;47.830;19.046;2022-12-15T08:51:19;12.45;;;7.65;;
46348;SDS011;32057;47.830;19.046;2022-12-15T08:53:45;16.88;;;7.78;;
46348;SDS011;32057;47.830;19.046;2022-12-15T08:56:12;19.80;;;9.15;;
46348;SDS011;32057;47.830;19.046;2022-12-15T08:58:39;22.55;;;9.20;;
46348;SDS011;32057;47.830;19.046;2022-12-15T09:01:10;16.83;;;9.05;;
46348;SDS011;32057;47.830;19.046;2022-12-15T09:03:37;21.90;;;12.38;;
46348;SDS011;32057;47.830;19.046;2022-12-15T09:06:03;20.08;;;10.20;;
46348;SDS011;32057;47.830;19.046;2022-12-15T09:08:30;19.25;;;10.70;;
46348;SDS011;32057;47.830;19.046;2022-12-15T09:10:56;18.75;;;10.35;;
46348;SDS011;32057;47.830;19.046;2022-12-15T09:13:22;21.42;;;12.35;;
46348;SDS011;32057;47.830;19.046;2022-12-15T09:15:55;14.88;;;7.90;;
46348;SDS011;32057;47.830;19.046;2022-12-15T09:18:21;18.13;;;10.43;;
46348;SDS011;32057;47.830;19.046;2022-12-15T09:20:47;15.15;;;9.05;;
46348;SDS011;32057;47.830;19.046;2022-12-15T09:23:12;19.27;;;9.35;;
46348;SDS011;32057;47.830;19.046;2022-12-15T09:25:37;17.58;;;10.38;;
46348;SDS011;32057;47.830;19.046;2022-12-15T09:28:03;16.70;;;10.40;;
46348;SDS011;32057;47.830;19.046;2022-12-15T09:30:28;20.65;;;8.82;;
46348;SDS011;32057;47.830;19.046;2022-12-15T09:32:54;21.67;;;10.85;;
46348;SDS011;32057;47.830;19.046;2022-12-15T09:35:19;23.33;;;10.43;;
46348;SDS011;32057;47.830;19.046;2022-12-15T09:37:44;15.15;;;8.23;;
46348;SDS011;32057;47.830;19.046;2022-12-15T09:40:10;19.23;;;8.77;;
46348;SDS011;32057;47.830;19.046;2022-12-15T09:42:37;16.58;;;9.38;;
46348;SDS011;32057;47.830;19.046;2022-12-15T09:47:51;18.20;;;11.35;;
46348;SDS011;32057;47.830;19.046;2022-12-15T09:50:25;17.27;;;10.30;;
46348;SDS011;32057;47.830;19.046;2022-12-15T09:52:56;18.40;;;9.38;;
46348;SDS011;32057;47.830;19.046;2022-12-15T09:55:26;29.00;;;9.60;;
46348;SDS011;32057;47.830;19.046;2022-12-15T10:06:12;17.60;;;9.13;;
46348;SDS011;32057;47.830;19.046;2022-12-15T10:08:43;18.48;;;9.80;;
46348;SDS011;32057;47.830;19.046;2022-12-15T10:13:45;19.77;;;9.20;;
46348;SDS011;32057;47.830;19.046;2022-12-15T10:22:03;15.52;;;7.60;;
46348;SDS011;32057;47.830;19.046;2022-12-15T10:24:29;15.48;;;8.35;;
46348;SDS011;32057;47.830;19.046;2022-12-15T10:30:06;13.23;;;8.13;;
46348;SDS011;32057;47.830;19.046;2022-12-15T10:35:15;17.98;;;9.43;;
46348;SDS011;32057;47.830;19.046;2022-12-15T10:37:50;26.10;;;10.48;;
46348;SDS011;32057;47.830;19.046;2022-12-15T10:40:17;20.08;;;9.40;;
46348;SDS011;32057;47.830;19.046;2022-12-15T10:43:02;19.92;;;7.80;;
46348;SDS011;32057;47.830;19.046;2022-12-15T10:45:38;16.60;;;8.60;;
46348;SDS011;32057;47.830;19.046;2022-12-15T10:48:04;16.38;;;7.88;;
46348;SDS011;32057;47.830;19.046;2022-12-15T10:50:31;18.15;;;11.00;;
46348;SDS011;32057;47.830;19.046;2022-12-15T10:52:58;20.55;;;11.07;;
46348;SDS011;32057;47.830;19.046;2022-12-15T10:55:40;15.18;;;9.27;;
46348;SDS011;32057;47.830;19.046;2022-12-15T10:58:20;16.55;;;9.40;;
46348;SDS011;32057;47.830;19.046;2022-12-15T11:00:47;15.95;;;8.07;;
46348;SDS011;32057;47.830;19.046;2022-12-15T11:03:28;19.05;;;10.13;;
46348;SDS011;32057;47.830;19.046;2022-12-15T11:05:59;11.93;;;7.78;;
46348;SDS011;32057;47.830;19.046;2022-12-15T11:08:24;18.02;;;8.05;;
46348;SDS011;32057;47.830;19.046;2022-12-15T11:10:53;16.13;;;8.90;;
46348;SDS011;32057;47.830;19.046;2022-12-15T11:13:39;20.83;;;11.25;;
46348;SDS011;32057;47.830;19.046;2022-12-15T11:16:18;17.52;;;9.57;;
46348;SDS011;32057;47.830;19.046;2022-12-15T11:21:19;19.02;;;9.43;;
46348;SDS011;32057;47.830;19.046;2022-12-15T11:26:43;22.75;;;10.82;;
46348;SDS011;32057;47.830;19.046;2022-12-15T11:32:03;17.52;;;9.43;;
46348;SDS011;32057;47.830;19.046;2022-12-15T11:34:32;22.80;;;10.63;;
46348;SDS011;32057;47.830;19.046;2022-12-15T11:39:33;16.15;;;8.85;;
46348;SDS011;32057;47.830;19.046;2022-12-15T11:42:18;16.98;;;9.27;;
46348;SDS011;32057;47.830;19.046;2022-12-15T11:48:02;11.65;;;7.65;;
46348;SDS011;32057;47.830;19.046;2022-12-15T11:53:52;21.40;;;12.20;;
46348;SDS011;32057;47.830;19.046;2022-12-15T12:02:01;20.48;;;11.48;;
46348;SDS011;32057;47.830;19.046;2022-12-15T12:05:25;18.80;;;9.70;;
46348;SDS011;32057;47.830;19.046;2022-12-15T12:07:49;20.35;;;10.13;;
46348;SDS011;32057;47.830;19.046;2022-12-15T12:10:24;17.52;;;9.73;;
46348;SDS011;32057;47.830;19.046;2022-12-15T12:15:50;23.50;;;14.30;;
46348;SDS011;32057;47.830;19.046;2022-12-15T12:18:22;35.97;;;11.20;;
46348;SDS011;32057;47.830;19.046;2022-12-15T12:20:58;21.33;;;8.10;;
46348;SDS011;32057;47.830;19.046;2022-12-15T12:23:37;21.90;;;13.00;;
46348;SDS011;32057;47.830;19.046;2022-12-15T12:29:37;21.05;;;10.43;;
46348;SDS011;32057;47.830;19.046;2022-12-15T12:34:53;20.50;;;11.15;;
46348;SDS011;32057;47.830;19.046;2022-12-15T12:37:36;18.20;;;11.57;;
46348;SDS011;32057;47.830;19.046;2022-12-15T12:40:23;20.60;;;11.00;;
46348;SDS011;32057;47.830;19.046;2022-12-15T12:43:00;22.90;;;11.85;;
46348;SDS011;32057;47.830;19.046;2022-12-15T12:45:28;19.35;;;11.15;;
46348;SDS011;32057;47.830;19.046;2022-12-15T12:48:00;18.23;;;10.53;;
46348;SDS011;32057;47.830;19.046;2022-12-15T12:50:33;22.52;;;12.90;;
46348;SDS011;32057;47.830;19.046;2022-12-15T12:53:00;21.13;;;10.63;;
46348;SDS011;32057;47.830;19.046;2022-12-15T12:55:37;22.25;;;11.10;;
46348;SDS011;32057;47.830;19.046;2022-12-15T13:01:03;21.08;;;12.30;;
46348;SDS011;32057;47.830;19.046;2022-12-15T13:03:29;21.48;;;10.73;;
46348;SDS011;32057;47.830;19.046;2022-12-15T13:05:54;26.08;;;12.30;;
46348;SDS011;32057;47.830;19.046;2022-12-15T13:08:27;22.58;;;11.55;;
46348;SDS011;32057;47.830;19.046;2022-12-15T13:14:16;20.17;;;11.68;;
46348;SDS011;32057;47.830;19.046;2022-12-15T13:16:44;27.70;;;13.63;;
46348;SDS011;32057;47.830;19.046;2022-12-15T13:19:11;20.98;;;11.05;;
46348;SDS011;32057;47.830;19.046;2022-12-15T13:32:27;25.40;;;15.00;;
46348;SDS011;32057;47.830;19.046;2022-12-15T13:34:53;21.60;;;10.05;;
46348;SDS011;32057;47.830;19.046;2022-12-15T13:40:24;18.30;;;11.10;;
46348;SDS011;32057;47.830;19.046;2022-12-15T13:46:17;18.80;;;12.18;;
46348;SDS011;32057;47.830;19.046;2022-12-15T13:48:50;18.52;;;10.57;;
46348;SDS011;32057;47.830;19.046;2022-12-15T13:51:32;23.20;;;12.43;;
46348;SDS011;32057;47.830;19.046;2022-12-15T13:54:01;20.95;;;11.48;;
46348;SDS011;32057;47.830;19.046;2022-12-15T13:59:25;28.02;;;12.65;;
46348;SDS011;32057;47.830;19.046;2022-12-15T14:01:52;31.55;;;15.20;;
46348;SDS011;32057;47.830;19.046;2022-12-15T14:04:18;25.50;;;12.45;;
46348;SDS011;32057;47.830;19.046;2022-12-15T14:06:46;19.63;;;11.63;;
46348;SDS011;32057;47.830;19.046;2022-12-15T14:09:24;32.53;;;16.88;;
46348;SDS011;32057;47.830;19.046;2022-12-15T14:11:54;21.85;;;11.40;;
46348;SDS011;32057;47.830;19.046;2022-12-15T14:14:24;32.85;;;13.60;;
46348;SDS011;32057;47.830;19.046;2022-12-15T14:17:07;19.90;;;12.48;;
46348;SDS011;32057;47.830;19.046;2022-12-15T14:19:38;24.90;;;12.23;;
46348;SDS011;32057;47.830;19.046;2022-12-15T14:25:02;24.77;;;12.48;;
46348;SDS011;32057;47.830;19.046;2022-12-15T14:27:37;24.48;;;11.88;;
46348;SDS011;32057;47.830;19.046;2022-12-15T14:33:12;28.65;;;12.05;;
46348;SDS011;32057;47.830;19.046;2022-12-15T14:35:43;24.70;;;13.98;;
46348;SDS011;32057;47.830;19.046;2022-12-15T14:38:13;16.23;;;10.88;;
46348;SDS011;32057;47.830;19.046;2022-12-15T14:40:41;28.55;;;15.18;;
46348;SDS011;32057;47.830;19.046;2022-12-15T14:43:20;26.25;;;10.38;;
46348;SDS011;32057;47.830;19.046;2022-12-15T14:45:55;29.08;;;10.80;;
46348;SDS011;32057;47.830;19.046;2022-12-15T14:48:38;29.23;;;12.23;;
46348;SDS011;32057;47.830;19.046;2022-12-15T14:51:09;18.23;;;10.75;;
46348;SDS011;32057;47.830;19.046;2022-12-15T14:53:37;17.80;;;10.38;;
46348;SDS011;32057;47.830;19.046;2022-12-15T14:56:38;14.82;;;8.32;;
46348;SDS011;32057;47.830;19.046;2022-12-15T15:01:57;23.63;;;10.20;;
46348;SDS011;32057;47.830;19.046;2022-12-15T15:04:32;27.58;;;12.38;;
46348;SDS011;32057;47.830;19.046;2022-12-15T15:06:59;24.65;;;13.52;;
46348;SDS011;32057;47.830;19.046;2022-12-15T15:09:31;21.05;;;11.90;;
46348;SDS011;32057;47.830;19.046;2022-12-15T15:12:05;25.45;;;13.52;;
46348;SDS011;32057;47.830;19.046;2022-12-15T15:14:37;19.40;;;12.15;;
46348;SDS011;32057;47.830;19.046;2022-12-15T15:17:07;25.17;;;13.35;;
46348;SDS011;32057;47.830;19.046;2022-12-15T15:22:24;24.17;;;13.20;;
46348;SDS011;32057;47.830;19.046;2022-12-15T15:24:51;25.17;;;14.10;;
46348;SDS011;32057;47.830;19.046;2022-12-15T15:29:49;31.25;;;12.65;;
46348;SDS011;32057;47.830;19.046;2022-12-15T15:32:17;23.58;;;11.88;;
46348;SDS011;32057;47.830;19.046;2022-12-15T15:34:44;27.83;;;13.68;;
46348;SDS011;32057;47.830;19.046;2022-12-15T15:37:20;18.92;;;11.10;;
46348;SDS011;32057;47.830;19.046;2022-12-15T15:39:52;22.90;;;10.90;;
46348;SDS011;32057;47.830;19.046;2022-12-15T15:42:21;18.67;;;11.40;;
46348;SDS011;32057;47.830;19.046;2022-12-15T15:44:46;26.45;;;13.25;;
46348;SDS011;32057;47.830;19.046;2022-12-15T15:47:20;24.73;;;13.32;;
46348;SDS011;32057;47.830;19.046;2022-12-15T15:49:49;31.92;;;11.80;;
46348;SDS011;32057;47.830;19.046;2022-12-15T15:52:15;29.00;;;12.40;;
46348;SDS011;32057;47.830;19.046;2022-12-15T15:54:41;21.63;;;11.88;;
46348;SDS011;32057;47.830;19.046;2022-12-15T15:57:10;21.17;;;11.77;;
46348;SDS011;32057;47.830;19.046;2022-12-15T15:59:38;17.85;;;11.20;;
46348;SDS011;32057;47.830;19.046;2022-12-15T16:02:07;24.08;;;12.30;;
46348;SDS011;32057;47.830;19.046;2022-12-15T16:04:33;19.25;;;10.23;;
46348;SDS011;32057;47.830;19.046;2022-12-15T16:07:01;15.68;;;10.13;;
46348;SDS011;32057;47.830;19.046;2022-12-15T16:09:28;20.80;;;8.50;;
46348;SDS011;32057;47.830;19.046;2022-12-15T16:11:54;22.23;;;11.60;;
46348;SDS011;32057;47.830;19.046;2022-12-15T16:14:19;16.27;;;10.70;;
46348;SDS011;32057;47.830;19.046;2022-12-15T16:16:45;32.95;;;12.00;;
46348;SDS011;32057;47.830;19.046;2022-12-15T16:19:10;21.00;;;11.77;;
46348;SDS011;32057;47.830;19.046;2022-12-15T16:21:36;22.38;;;10.80;;
46348;SDS011;32057;47.830;19.046;2022-12-15T16:24:04;22.95;;;12.95;;
46348;SDS011;32057;47.830;19.046;2022-12-15T16:26:39;21.90;;;11.10;;
46348;SDS011;32057;47.830;19.046;2022-12-15T16:29:12;16.65;;;9.65;;
46348;SDS011;32057;47.830;19.046;2022-12-15T16:31:39;19.27;;;9.98;;
46348;SDS011;32057;47.830;19.046;2022-12-15T16:34:09;13.65;;;8.57;;
46348;SDS011;32057;47.830;19.046;2022-12-15T16:36:36;19.00;;;11.52;;
46348;SDS011;32057;47.830;19.046;2022-12-15T16:39:02;16.10;;;8.20;;
46348;SDS011;32057;47.830;19.046;2022-12-15T16:41:28;19.65;;;11.30;;
46348;SDS011;32057;47.830;19.046;2022-12-15T16:43:53;24.27;;;10.45;;
46348;SDS011;32057;47.830;19.046;2022-12-15T16:46:18;35.45;;;11.73;;
46348;SDS011;32057;47.830;19.046;2022-12-15T16:48:44;27.52;;;12.02;;
46348;SDS011;32057;47.830;19.046;2022-12-15T16:51:17;16.52;;;9.73;;
46348;SDS011;32057;47.830;19.046;2022-12-15T16:53:50;19.70;;;10.82;;